VCP865 RKPC-RCTP
Flight info
| Callsign | VCP865 |
|---|---|
| Flight time | N/A |
| Altitude | 36000 |
| Route | PANSI2W PANSI Y711 MUGUS Y742 SALMI B576 BAKER BAKER1A |
| Aircraft | B738/M-SDE2E3FGHIRWXY/LB1 |
Departure
| Time | 2026-05-06 11:15 |
|---|---|
| Airport | Jeju International Airport (RKPC) |
Arrival
| Time | N/A |
|---|---|
| Airport | Taiwan Taoyuan International Airport (RCTP) |
| Time | Latitude | Longitude | Altitude | Speed | Heading |
|---|---|---|---|---|---|
| 2026-05-06 11:04 | 33.50850 | 126.49083 | 79 ft | 0 kts | 328° |
| 2026-05-06 11:12 | 33.50870 | 126.49068 | 79 ft | 6 kts | 328° |
| 2026-05-06 11:12 | 33.50921 | 126.49058 | 78 ft | 8 kts | 30° |
| 2026-05-06 11:12 | 33.50959 | 126.49116 | 78 ft | 10 kts | 58° |
| 2026-05-06 11:13 | 33.51002 | 126.49199 | 79 ft | 13 kts | 58° |
| 2026-05-06 11:13 | 33.51054 | 126.49300 | 80 ft | 13 kts | 58° |
| 2026-05-06 11:13 | 33.51101 | 126.49393 | 81 ft | 13 kts | 58° |
| 2026-05-06 11:13 | 33.51163 | 126.49513 | 81 ft | 20 kts | 58° |
| 2026-05-06 11:14 | 33.51234 | 126.49650 | 79 ft | 10 kts | 57° |
| 2026-05-06 11:14 | 33.51290 | 126.49715 | 77 ft | 11 kts | 20° |
| 2026-05-06 11:14 | 33.51376 | 126.49702 | 73 ft | 13 kts | 329° |
| 2026-05-06 11:14 | 33.51402 | 126.49603 | 73 ft | 12 kts | 244° |
| 2026-05-06 11:15 | 33.51306 | 126.49414 | 76 ft | 60 kts | 238° |
| 2026-05-06 11:15 | 33.50929 | 126.48679 | 68 ft | 142 kts | 239° |
| 2026-05-06 11:15 | 33.50329 | 126.47485 | 400 ft | 180 kts | 242° |
| 2026-05-06 11:15 | 33.49762 | 126.46236 | 1431 ft | 173 kts | 237° |
| 2026-05-06 11:16 | 33.49082 | 126.45010 | 2057 ft | 183 kts | 233° |
| 2026-05-06 11:16 | 33.48360 | 126.43716 | 2561 ft | 196 kts | 235° |
| 2026-05-06 11:16 | 33.47606 | 126.42268 | 3038 ft | 213 kts | 236° |
| 2026-05-06 11:16 | 33.46806 | 126.40699 | 3575 ft | 229 kts | 237° |
| 2026-05-06 11:17 | 33.45955 | 126.39040 | 4141 ft | 243 kts | 237° |
| 2026-05-06 11:17 | 33.45050 | 126.37283 | 4832 ft | 254 kts | 237° |
| 2026-05-06 11:17 | 33.44098 | 126.35438 | 5447 ft | 267 kts | 237° |
| 2026-05-06 11:17 | 33.42971 | 126.33662 | 6214 ft | 274 kts | 224° |
| 2026-05-06 11:18 | 33.41370 | 126.32456 | 7042 ft | 277 kts | 199° |
| 2026-05-06 11:18 | 33.39499 | 126.31870 | 7861 ft | 281 kts | 193° |
| 2026-05-06 11:18 | 33.37580 | 126.31387 | 8608 ft | 287 kts | 193° |
| 2026-05-06 11:18 | 33.35624 | 126.30875 | 9404 ft | 290 kts | 194° |
| 2026-05-06 11:19 | 33.33651 | 126.30326 | 10170 ft | 294 kts | 195° |
| 2026-05-06 11:19 | 33.31632 | 126.29744 | 10663 ft | 308 kts | 195° |
| 2026-05-06 11:19 | 33.29485 | 126.29115 | 11088 ft | 324 kts | 195° |
| 2026-05-06 11:19 | 33.27234 | 126.28456 | 11488 ft | 339 kts | 195° |
| 2026-05-06 11:20 | 33.24912 | 126.27780 | 11872 ft | 354 kts | 195° |
| 2026-05-06 11:20 | 33.22464 | 126.27069 | 12294 ft | 367 kts | 195° |
| 2026-05-06 11:20 | 33.19933 | 126.26337 | 12878 ft | 374 kts | 195° |
| 2026-05-06 11:20 | 33.17403 | 126.25607 | 13517 ft | 379 kts | 195° |
| 2026-05-06 11:21 | 33.14817 | 126.24862 | 14182 ft | 382 kts | 195° |
| 2026-05-06 11:21 | 33.12235 | 126.24118 | 14849 ft | 385 kts | 195° |
| 2026-05-06 11:21 | 33.09614 | 126.23364 | 15458 ft | 389 kts | 196° |
| 2026-05-06 11:21 | 33.06982 | 126.22603 | 16031 ft | 394 kts | 196° |
| 2026-05-06 11:22 | 33.04289 | 126.21826 | 16615 ft | 399 kts | 196° |
| 2026-05-06 11:22 | 33.01599 | 126.21050 | 17209 ft | 402 kts | 195° |
| 2026-05-06 11:22 | 32.98873 | 126.20174 | 17738 ft | 406 kts | 199° |
| 2026-05-06 11:22 | 32.96216 | 126.19128 | 18305 ft | 408 kts | 202° |
| 2026-05-06 11:23 | 32.93550 | 126.17969 | 18908 ft | 409 kts | 203° |
| 2026-05-06 11:23 | 32.90881 | 126.16771 | 19467 ft | 412 kts | 203° |
| 2026-05-06 11:23 | 32.88186 | 126.15566 | 19999 ft | 416 kts | 204° |
| 2026-05-06 11:23 | 32.85430 | 126.14348 | 20483 ft | 420 kts | 203° |
| 2026-05-06 11:24 | 32.82701 | 126.13154 | 20994 ft | 424 kts | 203° |
| 2026-05-06 11:24 | 32.79942 | 126.11957 | 21547 ft | 425 kts | 203° |
| 2026-05-06 11:24 | 32.77144 | 126.10751 | 22021 ft | 429 kts | 203° |
| 2026-05-06 11:24 | 32.74319 | 126.09538 | 22492 ft | 432 kts | 203° |
| 2026-05-06 11:25 | 32.71513 | 126.08336 | 22972 ft | 434 kts | 204° |
| 2026-05-06 11:25 | 32.68647 | 126.07111 | 23424 ft | 438 kts | 203° |
| 2026-05-06 11:25 | 32.65756 | 126.05875 | 23838 ft | 442 kts | 203° |
| 2026-05-06 11:25 | 32.62884 | 126.04649 | 24292 ft | 444 kts | 203° |
| 2026-05-06 11:26 | 32.59948 | 126.03399 | 24705 ft | 448 kts | 203° |
| 2026-05-06 11:26 | 32.57010 | 126.02148 | 25244 ft | 449 kts | 202° |
| 2026-05-06 11:26 | 32.54083 | 126.00904 | 25614 ft | 453 kts | 202° |
| 2026-05-06 11:26 | 32.51091 | 125.99634 | 26038 ft | 456 kts | 202° |
| 2026-05-06 11:27 | 32.48080 | 125.98355 | 26450 ft | 459 kts | 202° |
| 2026-05-06 11:27 | 32.45083 | 125.97084 | 26810 ft | 463 kts | 202° |
| 2026-05-06 11:27 | 32.42019 | 125.95785 | 27223 ft | 466 kts | 202° |
| 2026-05-06 11:27 | 32.38971 | 125.94495 | 27643 ft | 468 kts | 202° |
| 2026-05-06 11:28 | 32.35920 | 125.93206 | 28020 ft | 471 kts | 202° |
| 2026-05-06 11:28 | 32.32833 | 125.91901 | 28381 ft | 473 kts | 202° |
| 2026-05-06 11:28 | 32.29693 | 125.90575 | 28779 ft | 475 kts | 202° |
| 2026-05-06 11:28 | 32.26591 | 125.89266 | 29080 ft | 479 kts | 202° |
| 2026-05-06 11:29 | 32.23447 | 125.87941 | 29510 ft | 480 kts | 202° |
| 2026-05-06 11:29 | 32.20307 | 125.86619 | 30055 ft | 478 kts | 202° |
| 2026-05-06 11:29 | 32.17169 | 125.85299 | 30553 ft | 477 kts | 202° |
| 2026-05-06 11:29 | 32.14084 | 125.84003 | 31040 ft | 475 kts | 202° |
| 2026-05-06 11:30 | 32.10965 | 125.82692 | 31514 ft | 474 kts | 202° |
| 2026-05-06 11:30 | 32.07850 | 125.81383 | 31920 ft | 474 kts | 202° |
| 2026-05-06 11:30 | 32.04739 | 125.80077 | 32314 ft | 474 kts | 202° |
| 2026-05-06 11:30 | 32.01607 | 125.78762 | 32677 ft | 475 kts | 202° |
| 2026-05-06 11:31 | 31.98467 | 125.77445 | 33071 ft | 474 kts | 202° |
| 2026-05-06 11:31 | 31.95351 | 125.76136 | 33478 ft | 474 kts | 202° |
| 2026-05-06 11:31 | 31.92242 | 125.74828 | 33936 ft | 472 kts | 202° |
| 2026-05-06 11:31 | 31.89164 | 125.73534 | 34379 ft | 471 kts | 202° |
| 2026-05-06 11:32 | 31.86075 | 125.72237 | 34795 ft | 469 kts | 203° |
| 2026-05-06 11:32 | 31.82982 | 125.70938 | 35185 ft | 468 kts | 203° |
| 2026-05-06 11:32 | 31.79956 | 125.69669 | 35556 ft | 467 kts | 203° |
| 2026-05-06 11:32 | 31.76885 | 125.68383 | 35915 ft | 466 kts | 203° |
| 2026-05-06 11:33 | 31.73803 | 125.67093 | 36031 ft | 468 kts | 203° |
| 2026-05-06 11:33 | 31.67697 | 125.64536 | 36029 ft | 465 kts | 203° |
| 2026-05-06 11:34 | 31.61573 | 125.61974 | 36030 ft | 467 kts | 203° |
| 2026-05-06 11:34 | 31.55483 | 125.59425 | 36029 ft | 467 kts | 203° |
| 2026-05-06 11:35 | 31.49385 | 125.56878 | 36028 ft | 465 kts | 203° |
| 2026-05-06 11:35 | 31.43255 | 125.54313 | 36029 ft | 468 kts | 203° |
| 2026-05-06 11:36 | 31.37056 | 125.51715 | 36028 ft | 477 kts | 203° |
| 2026-05-06 11:36 | 31.30773 | 125.49088 | 36028 ft | 478 kts | 203° |
| 2026-05-06 11:37 | 31.24527 | 125.46485 | 36029 ft | 477 kts | 203° |
| 2026-05-06 11:37 | 31.18290 | 125.43888 | 36029 ft | 476 kts | 202° |
| 2026-05-06 11:38 | 31.12038 | 125.41288 | 36029 ft | 478 kts | 203° |
| 2026-05-06 11:38 | 31.05775 | 125.38686 | 36029 ft | 477 kts | 203° |
| 2026-05-06 11:39 | 30.99529 | 125.36097 | 36029 ft | 477 kts | 203° |
| 2026-05-06 11:39 | 30.93268 | 125.33504 | 36026 ft | 478 kts | 202° |
| 2026-05-06 11:40 | 30.87032 | 125.30926 | 36025 ft | 477 kts | 202° |
| 2026-05-06 11:40 | 30.80737 | 125.28326 | 36025 ft | 477 kts | 202° |
| 2026-05-06 11:41 | 30.74479 | 125.25745 | 36025 ft | 478 kts | 203° |
| 2026-05-06 11:41 | 30.68239 | 125.23177 | 36022 ft | 477 kts | 202° |
| 2026-05-06 11:42 | 30.61937 | 125.20585 | 36021 ft | 476 kts | 202° |
| 2026-05-06 11:42 | 30.55665 | 125.18008 | 36018 ft | 478 kts | 203° |
| 2026-05-06 11:43 | 30.49399 | 125.15437 | 36019 ft | 477 kts | 202° |
| 2026-05-06 11:43 | 30.43156 | 125.12878 | 36015 ft | 476 kts | 203° |
| 2026-05-06 11:44 | 30.33763 | 125.09036 | 36013 ft | 476 kts | 203° |
| 2026-05-06 11:44 | 30.27510 | 125.06486 | 36016 ft | 476 kts | 203° |
| 2026-05-06 11:45 | 30.21250 | 125.03934 | 36015 ft | 476 kts | 203° |
| 2026-05-06 11:45 | 30.15027 | 125.01399 | 36011 ft | 476 kts | 203° |
| 2026-05-06 11:46 | 30.08764 | 124.98850 | 36010 ft | 475 kts | 203° |
| 2026-05-06 11:46 | 30.02531 | 124.96317 | 36011 ft | 476 kts | 203° |
| 2026-05-06 11:47 | 29.96276 | 124.93751 | 36007 ft | 476 kts | 204° |
| 2026-05-06 11:47 | 29.90049 | 124.91093 | 36009 ft | 477 kts | 205° |
| 2026-05-06 11:48 | 29.83797 | 124.88402 | 36008 ft | 477 kts | 205° |
| 2026-05-06 11:48 | 29.77612 | 124.85748 | 36008 ft | 477 kts | 204° |
| 2026-05-06 11:49 | 29.71363 | 124.83080 | 36005 ft | 477 kts | 204° |
| 2026-05-06 11:49 | 29.65171 | 124.80445 | 36009 ft | 477 kts | 204° |
| 2026-05-06 11:50 | 29.58929 | 124.77793 | 36011 ft | 478 kts | 204° |
| 2026-05-06 11:50 | 29.52693 | 124.75150 | 36014 ft | 477 kts | 204° |
| 2026-05-06 11:51 | 29.46463 | 124.72513 | 36017 ft | 478 kts | 205° |
| 2026-05-06 11:51 | 29.40218 | 124.69875 | 36017 ft | 479 kts | 204° |
| 2026-05-06 11:52 | 29.33947 | 124.67229 | 36022 ft | 479 kts | 204° |
| 2026-05-06 11:52 | 29.27698 | 124.64594 | 36021 ft | 478 kts | 205° |
| 2026-05-06 11:53 | 29.21430 | 124.61956 | 36020 ft | 479 kts | 205° |
| 2026-05-06 11:53 | 29.15126 | 124.59306 | 36009 ft | 480 kts | 205° |
| 2026-05-06 11:54 | 29.08853 | 124.56672 | 36006 ft | 479 kts | 205° |
| 2026-05-06 11:54 | 29.02642 | 124.54068 | 36008 ft | 479 kts | 205° |
| 2026-05-06 11:55 | 28.96433 | 124.51238 | 36006 ft | 476 kts | 211° |
| 2026-05-06 11:55 | 28.90736 | 124.47516 | 36009 ft | 471 kts | 218° |
| 2026-05-06 11:56 | 28.85365 | 124.43295 | 36005 ft | 469 kts | 221° |
| 2026-05-06 11:56 | 28.80049 | 124.38936 | 36009 ft | 468 kts | 221° |
| 2026-05-06 11:57 | 28.74746 | 124.34599 | 36009 ft | 468 kts | 220° |
| 2026-05-06 11:57 | 28.69433 | 124.30296 | 36002 ft | 468 kts | 220° |
| 2026-05-06 11:58 | 28.64117 | 124.26024 | 36010 ft | 467 kts | 220° |
| 2026-05-06 11:58 | 28.58795 | 124.21765 | 36008 ft | 469 kts | 220° |
| 2026-05-06 11:59 | 28.53451 | 124.17500 | 36009 ft | 468 kts | 220° |
| 2026-05-06 11:59 | 28.48110 | 124.13245 | 36010 ft | 467 kts | 220° |
| 2026-05-06 12:00 | 28.42806 | 124.09024 | 36010 ft | 467 kts | 220° |
| 2026-05-06 12:00 | 28.37465 | 124.04779 | 36008 ft | 467 kts | 220° |
| 2026-05-06 12:01 | 28.32133 | 124.00548 | 36009 ft | 467 kts | 220° |
| 2026-05-06 12:01 | 28.26821 | 123.96287 | 36010 ft | 467 kts | 221° |
| 2026-05-06 12:02 | 28.21537 | 123.91976 | 36007 ft | 466 kts | 221° |
| 2026-05-06 12:02 | 28.16292 | 123.87693 | 36008 ft | 464 kts | 221° |
| 2026-05-06 12:03 | 28.11043 | 123.83415 | 36008 ft | 464 kts | 221° |
| 2026-05-06 12:03 | 28.05780 | 123.79138 | 36002 ft | 465 kts | 221° |
| 2026-05-06 12:04 | 28.00551 | 123.74899 | 36011 ft | 464 kts | 221° |
| 2026-05-06 12:04 | 27.95288 | 123.70640 | 36005 ft | 463 kts | 221° |
| 2026-05-06 12:05 | 27.90060 | 123.66404 | 36009 ft | 464 kts | 221° |
| 2026-05-06 12:05 | 27.84839 | 123.62157 | 36009 ft | 463 kts | 221° |
| 2026-05-06 12:06 | 27.79602 | 123.57893 | 36007 ft | 463 kts | 221° |
| 2026-05-06 12:06 | 27.74382 | 123.53650 | 36005 ft | 464 kts | 221° |
| 2026-05-06 12:07 | 27.69127 | 123.49387 | 35994 ft | 462 kts | 221° |
| 2026-05-06 12:07 | 27.63887 | 123.45142 | 35986 ft | 465 kts | 221° |
| 2026-05-06 12:08 | 27.58609 | 123.40873 | 35988 ft | 465 kts | 221° |
| 2026-05-06 12:08 | 27.53389 | 123.36656 | 35988 ft | 464 kts | 221° |
| 2026-05-06 12:09 | 27.48110 | 123.32398 | 35990 ft | 465 kts | 221° |
| 2026-05-06 12:09 | 27.42852 | 123.28161 | 35993 ft | 464 kts | 221° |
| 2026-05-06 12:10 | 27.37620 | 123.23951 | 35989 ft | 464 kts | 221° |
| 2026-05-06 12:10 | 27.32384 | 123.19742 | 35993 ft | 463 kts | 221° |
| 2026-05-06 12:11 | 27.27120 | 123.15514 | 35989 ft | 463 kts | 220° |
| 2026-05-06 12:11 | 27.21847 | 123.11282 | 35990 ft | 464 kts | 221° |
| 2026-05-06 12:12 | 27.16586 | 123.07069 | 35989 ft | 463 kts | 221° |
| 2026-05-06 12:12 | 27.11336 | 123.02868 | 35988 ft | 464 kts | 220° |
| 2026-05-06 12:13 | 27.06063 | 122.98655 | 35990 ft | 463 kts | 220° |
| 2026-05-06 12:13 | 27.00815 | 122.94477 | 35988 ft | 462 kts | 220° |
| 2026-05-06 12:14 | 26.95570 | 122.90308 | 35986 ft | 464 kts | 220° |
| 2026-05-06 12:14 | 26.90304 | 122.86128 | 35985 ft | 463 kts | 221° |
| 2026-05-06 12:15 | 26.85044 | 122.81954 | 35982 ft | 463 kts | 221° |
| 2026-05-06 12:15 | 26.79791 | 122.77794 | 35984 ft | 460 kts | 221° |
| 2026-05-06 12:16 | 26.74553 | 122.73649 | 35982 ft | 459 kts | 221° |
| 2026-05-06 12:16 | 26.69315 | 122.69506 | 35981 ft | 461 kts | 221° |
| 2026-05-06 12:17 | 26.64089 | 122.65379 | 35979 ft | 460 kts | 221° |
| 2026-05-06 12:17 | 26.58821 | 122.61220 | 35981 ft | 460 kts | 221° |
| 2026-05-06 12:18 | 26.53609 | 122.57112 | 35979 ft | 460 kts | 220° |
| 2026-05-06 12:18 | 26.48381 | 122.52995 | 35983 ft | 459 kts | 221° |
| 2026-05-06 12:19 | 26.43143 | 122.48874 | 35981 ft | 459 kts | 221° |
| 2026-05-06 12:19 | 26.37908 | 122.44761 | 35982 ft | 460 kts | 221° |
| 2026-05-06 12:20 | 26.32698 | 122.40674 | 35983 ft | 457 kts | 221° |
| 2026-05-06 12:20 | 26.27484 | 122.36587 | 35987 ft | 459 kts | 221° |
| 2026-05-06 12:21 | 26.24871 | 122.34542 | 35876 ft | 452 kts | 220° |
| 2026-05-06 12:21 | 26.22297 | 122.32533 | 35476 ft | 445 kts | 220° |
| 2026-05-06 12:21 | 26.19769 | 122.30560 | 34916 ft | 441 kts | 220° |
| 2026-05-06 12:21 | 26.17285 | 122.28618 | 34254 ft | 440 kts | 220° |
| 2026-05-06 12:22 | 26.14794 | 122.26668 | 33536 ft | 439 kts | 220° |
| 2026-05-06 12:22 | 26.12285 | 122.24710 | 32823 ft | 440 kts | 220° |
| 2026-05-06 12:22 | 26.09767 | 122.22766 | 32339 ft | 435 kts | 219° |
| 2026-05-06 12:22 | 26.07277 | 122.20858 | 31898 ft | 434 kts | 219° |
| 2026-05-06 12:23 | 26.04775 | 122.18942 | 31398 ft | 440 kts | 219° |
| 2026-05-06 12:23 | 26.02256 | 122.17017 | 30878 ft | 437 kts | 219° |
| 2026-05-06 12:23 | 25.99759 | 122.15111 | 30360 ft | 433 kts | 218° |
| 2026-05-06 12:23 | 25.97300 | 122.13237 | 29858 ft | 429 kts | 218° |
| 2026-05-06 12:24 | 25.94861 | 122.11377 | 29348 ft | 425 kts | 218° |
| 2026-05-06 12:24 | 25.92436 | 122.09528 | 28841 ft | 420 kts | 218° |
| 2026-05-06 12:24 | 25.90036 | 122.07697 | 28332 ft | 416 kts | 218° |
| 2026-05-06 12:24 | 25.87667 | 122.05890 | 27842 ft | 412 kts | 218° |
| 2026-05-06 12:25 | 25.85322 | 122.04102 | 27337 ft | 408 kts | 218° |
| 2026-05-06 12:25 | 25.83000 | 122.02331 | 26846 ft | 404 kts | 218° |
| 2026-05-06 12:25 | 25.80697 | 122.00577 | 26347 ft | 400 kts | 218° |
| 2026-05-06 12:25 | 25.78392 | 121.98821 | 25857 ft | 396 kts | 218° |
| 2026-05-06 12:26 | 25.76130 | 121.97097 | 25368 ft | 397 kts | 218° |
| 2026-05-06 12:26 | 25.73852 | 121.95360 | 24870 ft | 401 kts | 218° |
| 2026-05-06 12:26 | 25.71544 | 121.93599 | 24356 ft | 399 kts | 218° |
| 2026-05-06 12:26 | 25.69289 | 121.91872 | 23864 ft | 395 kts | 218° |
| 2026-05-06 12:27 | 25.67047 | 121.90108 | 23372 ft | 390 kts | 221° |
| 2026-05-06 12:27 | 25.65057 | 121.88147 | 22892 ft | 384 kts | 229° |
| 2026-05-06 12:27 | 25.63361 | 121.85883 | 22397 ft | 378 kts | 237° |
| 2026-05-06 12:27 | 25.61932 | 121.83496 | 21925 ft | 374 kts | 240° |
| 2026-05-06 12:28 | 25.60612 | 121.81028 | 21433 ft | 371 kts | 243° |
| 2026-05-06 12:28 | 25.59355 | 121.78558 | 20958 ft | 368 kts | 243° |
| 2026-05-06 12:28 | 25.58116 | 121.76089 | 20468 ft | 365 kts | 243° |
| 2026-05-06 12:28 | 25.56884 | 121.73634 | 19985 ft | 363 kts | 243° |
| 2026-05-06 12:29 | 25.55663 | 121.71214 | 19498 ft | 361 kts | 243° |
| 2026-05-06 12:29 | 25.54436 | 121.68797 | 19017 ft | 358 kts | 243° |
| 2026-05-06 12:29 | 25.53219 | 121.66409 | 18542 ft | 355 kts | 243° |
| 2026-05-06 12:29 | 25.52007 | 121.64037 | 18053 ft | 353 kts | 242° |
| 2026-05-06 12:30 | 25.50804 | 121.61687 | 17579 ft | 351 kts | 242° |
| 2026-05-06 12:30 | 25.49597 | 121.59358 | 17095 ft | 349 kts | 241° |
| 2026-05-06 12:30 | 25.48303 | 121.57128 | 16636 ft | 348 kts | 236° |
| 2026-05-06 12:30 | 25.46831 | 121.55019 | 16159 ft | 347 kts | 232° |
| 2026-05-06 12:31 | 25.45270 | 121.52998 | 15690 ft | 345 kts | 230° |
| 2026-05-06 12:31 | 25.43677 | 121.51011 | 15215 ft | 343 kts | 230° |
| 2026-05-06 12:31 | 25.42104 | 121.49056 | 14764 ft | 341 kts | 230° |
| 2026-05-06 12:31 | 25.40545 | 121.47100 | 14282 ft | 340 kts | 230° |
| 2026-05-06 12:32 | 25.38993 | 121.45133 | 13826 ft | 337 kts | 231° |
| 2026-05-06 12:32 | 25.37458 | 121.43179 | 13363 ft | 336 kts | 231° |
| 2026-05-06 12:32 | 25.35934 | 121.41233 | 12906 ft | 334 kts | 231° |
| 2026-05-06 12:32 | 25.34430 | 121.39311 | 12451 ft | 332 kts | 231° |
| 2026-05-06 12:33 | 25.32916 | 121.37376 | 11988 ft | 330 kts | 230° |
| 2026-05-06 12:33 | 25.31416 | 121.35461 | 11547 ft | 327 kts | 230° |
| 2026-05-06 12:33 | 25.29941 | 121.33579 | 11109 ft | 325 kts | 230° |
| 2026-05-06 12:33 | 25.28468 | 121.31699 | 10660 ft | 322 kts | 230° |
| 2026-05-06 12:34 | 25.27008 | 121.29839 | 10328 ft | 316 kts | 229° |
| 2026-05-06 12:34 | 25.25585 | 121.28026 | 10194 ft | 302 kts | 229° |
| 2026-05-06 12:34 | 25.24247 | 121.26319 | 10099 ft | 289 kts | 229° |
| 2026-05-06 12:34 | 25.22949 | 121.24665 | 9854 ft | 283 kts | 229° |
| 2026-05-06 12:35 | 25.21648 | 121.23008 | 9450 ft | 282 kts | 229° |
| 2026-05-06 12:35 | 25.20369 | 121.21380 | 9090 ft | 280 kts | 229° |
| 2026-05-06 12:35 | 25.19103 | 121.19766 | 8733 ft | 278 kts | 229° |
| 2026-05-06 12:35 | 25.17843 | 121.18163 | 8386 ft | 275 kts | 229° |
| 2026-05-06 12:36 | 25.16593 | 121.16573 | 8034 ft | 273 kts | 229° |
| 2026-05-06 12:36 | 25.15362 | 121.15009 | 7691 ft | 271 kts | 229° |
| 2026-05-06 12:36 | 25.14127 | 121.13441 | 7350 ft | 268 kts | 229° |
| 2026-05-06 12:36 | 25.12916 | 121.11903 | 7014 ft | 266 kts | 229° |
| 2026-05-06 12:37 | 25.11708 | 121.10370 | 6672 ft | 264 kts | 229° |
| 2026-05-06 12:37 | 25.10502 | 121.08839 | 6330 ft | 261 kts | 229° |
| 2026-05-06 12:37 | 25.09327 | 121.07346 | 6166 ft | 249 kts | 229° |
| 2026-05-06 12:37 | 25.08233 | 121.05958 | 6073 ft | 235 kts | 229° |
| 2026-05-06 12:38 | 25.07165 | 121.04600 | 5814 ft | 230 kts | 230° |
| 2026-05-06 12:38 | 25.06137 | 121.03293 | 5528 ft | 224 kts | 229° |
| 2026-05-06 12:38 | 25.05126 | 121.02019 | 5235 ft | 219 kts | 227° |
| 2026-05-06 12:38 | 25.03974 | 121.00966 | 4951 ft | 214 kts | 207° |
| 2026-05-06 12:39 | 25.02526 | 121.00665 | 4703 ft | 210 kts | 175° |
| 2026-05-06 12:39 | 25.01150 | 121.01115 | 4467 ft | 206 kts | 155° |
| 2026-05-06 12:39 | 24.99971 | 121.02007 | 4263 ft | 201 kts | 139° |
| 2026-05-06 12:39 | 24.98992 | 121.03068 | 4070 ft | 196 kts | 136° |
| 2026-05-06 12:40 | 24.98025 | 121.04125 | 3883 ft | 194 kts | 137° |
| 2026-05-06 12:40 | 24.97060 | 121.05170 | 3665 ft | 192 kts | 133° |
| 2026-05-06 12:40 | 24.96375 | 121.06406 | 3447 ft | 188 kts | 102° |
| 2026-05-06 12:40 | 24.96527 | 121.07800 | 3277 ft | 188 kts | 63° |
| 2026-05-06 12:41 | 24.97307 | 121.08958 | 3088 ft | 190 kts | 50° |
| 2026-05-06 12:41 | 24.98169 | 121.10072 | 2797 ft | 189 kts | 51° |
| 2026-05-06 12:41 | 24.99001 | 121.11146 | 2561 ft | 179 kts | 50° |